createdAt,value
2019-05-06T00:00:59.073Z,10.70
2019-05-06T00:06:00.918Z,9.50
2019-05-06T00:11:05.241Z,11.37
2019-05-06T00:16:09.348Z,16.77
2019-05-06T00:21:14.756Z,11.70
2019-05-06T00:26:47.098Z,11.03
2019-05-06T00:31:51.121Z,14.60
2019-05-06T00:36:55.548Z,11.17
2019-05-06T00:42:19.106Z,14.73
2019-05-06T00:47:24.565Z,11.30
2019-05-06T00:52:28.835Z,9.40
2019-05-06T00:57:43.870Z,14.53
2019-05-06T01:02:50.014Z,13.60
2019-05-06T01:07:55.154Z,10.40
2019-05-06T01:13:24.220Z,15.20
2019-05-06T01:18:29.728Z,15.10
2019-05-06T01:23:35.098Z,20.50
2019-05-06T01:28:40.310Z,16.60
2019-05-06T01:33:46.041Z,13.90
2019-05-06T01:39:24.662Z,18.60
2019-05-06T01:44:29.695Z,18.60
2019-05-06T01:49:34.587Z,14.67
2019-05-06T01:54:39.588Z,14.40
2019-05-06T01:59:44.504Z,12.40
2019-05-06T02:04:49.733Z,14.30
2019-05-06T02:09:54.491Z,20.20
2019-05-06T02:14:59.019Z,12.30
2019-05-06T02:20:04.373Z,12.13
2019-05-06T02:25:15.459Z,11.53
2019-05-06T02:30:38.882Z,11.90
2019-05-06T02:35:49.813Z,16.47
2019-05-06T02:40:55.158Z,14.33
2019-05-06T02:45:59.684Z,15.63
2019-05-06T02:51:13.611Z,17.97
2019-05-06T02:56:17.754Z,15.27
2019-05-06T03:01:23.270Z,11.87
2019-05-06T03:06:27.421Z,11.63
2019-05-06T03:11:33.142Z,12.73
2019-05-06T03:16:37.875Z,13.17
2019-05-06T03:22:06.140Z,12.93
2019-05-06T03:27:14.083Z,12.93
2019-05-06T03:32:25.190Z,14.53
2019-05-06T03:37:25.993Z,14.47
2019-05-06T03:42:33.424Z,11.03
2019-05-06T03:47:54.320Z,11.80
2019-05-06T03:53:03.218Z,11.73
2019-05-06T03:58:13.240Z,11.93
2019-05-06T04:03:17.171Z,12.57
2019-05-06T04:08:24.090Z,12.70
2019-05-06T04:13:32.979Z,10.27
2019-05-06T04:18:40.054Z,15.60
2019-05-06T04:24:13.397Z,13.90
2019-05-06T04:29:19.002Z,13.73
2019-05-06T04:34:24.591Z,13.30
2019-05-06T04:39:33.119Z,24.53
2019-05-06T04:44:38.274Z,12.70
2019-05-06T04:49:45.085Z,13.23
2019-05-06T04:54:49.973Z,15.63
2019-05-06T04:59:56.114Z,15.10
2019-05-06T05:05:04.405Z,14.53
2019-05-06T05:10:16.968Z,17.67
2019-05-06T05:15:41.791Z,15.33
2019-05-06T05:20:47.040Z,15.60
2019-05-06T05:25:52.240Z,21.60
2019-05-06T05:30:57.534Z,15.37
2019-05-06T05:36:02.851Z,12.70
2019-05-06T05:41:08.754Z,16.40
2019-05-06T05:46:13.299Z,16.40
2019-05-06T05:51:18.465Z,25.03
2019-05-06T05:56:24.042Z,19.40
2019-05-06T06:01:28.844Z,22.77
2019-05-06T06:06:33.405Z,16.53
2019-05-06T06:12:06.088Z,19.70
2019-05-06T06:17:23.313Z,26.30
2019-05-06T06:22:29.062Z,19.23
2019-05-06T06:27:51.935Z,20.27
2019-05-06T06:32:57.080Z,18.57
2019-05-06T06:38:18.564Z,20.50
2019-05-06T06:43:26.069Z,20.37
2019-05-06T06:48:32.191Z,19.37
2019-05-06T06:53:37.658Z,20.83
2019-05-06T06:59:02.718Z,19.70
2019-05-06T07:04:13.554Z,22.27
2019-05-06T07:09:19.802Z,23.70
2019-05-06T07:14:25.152Z,21.00
2019-05-06T07:19:42.270Z,19.80
2019-05-06T07:24:47.864Z,21.63
2019-05-06T07:29:52.796Z,19.40
2019-05-06T07:34:57.908Z,15.03
2019-05-06T07:40:05.382Z,22.43
2019-05-06T07:45:28.850Z,16.40
2019-05-06T07:50:34.466Z,17.57
2019-05-06T07:55:42.185Z,17.13
2019-05-06T08:00:47.113Z,17.93
2019-05-06T08:05:58.225Z,24.53
2019-05-06T08:10:58.747Z,18.87
2019-05-06T08:16:05.283Z,14.90
2019-05-06T08:21:18.811Z,18.13
2019-05-06T08:26:24.110Z,12.00
2019-05-06T08:31:28.753Z,13.87
2019-05-06T08:37:02.432Z,13.07
2019-05-06T08:42:08.387Z,12.67
2019-05-06T08:47:13.265Z,15.03
2019-05-06T08:52:18.692Z,15.87
2019-05-06T08:57:22.998Z,8.53
2019-05-06T09:02:29.000Z,11.10
2019-05-06T09:07:34.356Z,11.70
2019-05-06T09:12:42.395Z,12.63
2019-05-06T09:17:47.076Z,11.03
2019-05-06T09:22:52.607Z,8.00
2019-05-06T09:28:13.011Z,10.70
2019-05-06T09:33:33.029Z,12.67
2019-05-06T09:38:37.589Z,7.87
2019-05-06T09:43:47.452Z,8.27
2019-05-06T09:49:06.696Z,11.70
2019-05-06T09:54:33.141Z,14.57
2019-05-06T09:59:38.832Z,9.90
2019-05-06T10:04:44.166Z,7.40
2019-05-06T10:09:49.577Z,7.37
2019-05-06T10:14:55.318Z,9.93
2019-05-06T10:20:02.830Z,6.00
2019-05-06T10:25:08.072Z,10.10
2019-05-06T10:30:13.203Z,8.53
2019-05-06T10:35:19.315Z,9.67
2019-05-06T10:40:29.981Z,10.40
2019-05-06T10:45:35.732Z,8.37
2019-05-06T10:50:47.077Z,10.60
2019-05-06T10:55:53.591Z,7.90
2019-05-06T11:01:23.121Z,7.70
2019-05-06T11:06:28.270Z,6.80
2019-05-06T11:11:38.509Z,7.33
2019-05-06T11:16:40.650Z,8.77
2019-05-06T11:21:45.352Z,13.27
2019-05-06T11:26:53.327Z,8.40
2019-05-06T11:32:27.872Z,6.10
2019-05-06T11:37:54.338Z,15.40
2019-05-06T11:42:59.692Z,14.20
2019-05-06T11:48:06.694Z,7.43
2019-05-06T11:53:12.717Z,7.27
2019-05-06T11:58:42.505Z,8.33
2019-05-06T12:03:47.228Z,7.70
2019-05-06T12:08:52.557Z,11.13
2019-05-06T12:13:58.045Z,6.93
2019-05-06T12:19:04.034Z,4.50
2019-05-06T12:24:08.985Z,5.70
2019-05-06T12:29:14.293Z,3.37
2019-05-06T12:34:19.736Z,4.33
2019-05-06T12:39:29.009Z,5.17
2019-05-06T12:44:37.627Z,3.20
2019-05-06T12:49:42.903Z,3.60
2019-05-06T12:54:48.015Z,3.63
2019-05-06T12:59:53.409Z,5.63
2019-05-06T13:05:00.991Z,5.60
2019-05-06T13:10:07.366Z,5.57
2019-05-06T13:15:13.544Z,4.00
2019-05-06T13:20:19.413Z,4.97
2019-05-06T13:25:24.728Z,8.27
2019-05-06T13:30:29.312Z,4.30
2019-05-06T13:35:34.406Z,3.63
2019-05-06T13:40:53.805Z,7.03
2019-05-06T13:45:52.407Z,37.87
2019-05-06T13:51:03.436Z,5.33
2019-05-06T13:56:09.010Z,4.13
2019-05-06T14:01:16.578Z,6.17
2019-05-06T14:06:21.132Z,5.53
2019-05-06T14:11:25.814Z,4.93
2019-05-06T14:16:33.430Z,3.40
2019-05-06T14:21:37.124Z,4.87
2019-05-06T14:26:57.497Z,4.87
2019-05-06T14:31:59.490Z,5.50
2019-05-06T14:37:03.826Z,4.40
2019-05-06T14:42:09.112Z,4.57
2019-05-06T14:47:34.731Z,5.10
2019-05-06T14:52:42.485Z,4.60
2019-05-06T14:57:47.060Z,4.33
2019-05-06T15:02:53.266Z,14.70
2019-05-06T15:07:58.397Z,7.50
2019-05-06T15:13:03.966Z,5.10
2019-05-06T15:18:09.590Z,6.10
2019-05-06T15:23:15.250Z,6.40
2019-05-06T15:28:22.492Z,5.13
2019-05-06T15:33:33.264Z,6.40
2019-05-06T15:38:39.073Z,4.77
2019-05-06T15:43:44.836Z,6.67
2019-05-06T15:48:52.820Z,4.93
2019-05-06T15:53:57.733Z,5.63
2019-05-06T15:59:03.314Z,4.50
2019-05-06T16:04:08.442Z,4.10
2019-05-06T16:09:14.446Z,3.80
2019-05-06T16:14:19.562Z,5.33
2019-05-06T16:19:24.820Z,7.43
2019-05-06T16:24:37.290Z,4.43
2019-05-06T16:29:42.882Z,4.80
2019-05-06T16:34:48.198Z,4.70
2019-05-06T16:39:54.639Z,3.77
2019-05-06T16:45:00.226Z,3.07
2019-05-06T16:50:13.441Z,6.03
2019-05-06T16:55:25.852Z,8.27
2019-05-06T17:00:32.802Z,4.37
2019-05-06T17:05:47.080Z,5.00
2019-05-06T17:10:53.027Z,4.13
2019-05-06T17:15:56.133Z,7.80
2019-05-06T17:20:59.865Z,7.70
2019-05-06T17:26:03.351Z,7.13
2019-05-06T17:31:31.805Z,5.20
2019-05-06T17:36:53.830Z,6.53
2019-05-06T17:41:57.974Z,4.83
2019-05-06T17:47:22.918Z,5.30
2019-05-06T17:52:29.162Z,8.00
2019-05-06T17:57:34.292Z,6.93
2019-05-06T18:02:41.672Z,6.43
2019-05-06T18:07:46.522Z,6.20
2019-05-06T18:12:53.063Z,4.97
2019-05-06T18:17:59.333Z,7.77
2019-05-06T18:23:04.764Z,5.83
2019-05-06T18:28:12.121Z,6.53
2019-05-06T18:33:18.399Z,6.07
2019-05-06T18:38:23.892Z,5.90
2019-05-06T18:43:29.199Z,8.20
2019-05-06T18:48:35.330Z,7.10
2019-05-06T18:53:42.322Z,11.13
2019-05-06T18:58:48.448Z,7.00
2019-05-06T19:04:19.267Z,5.83
2019-05-06T19:09:32.632Z,9.73
2019-05-06T19:14:38.033Z,7.07
2019-05-06T19:19:43.219Z,11.87
2019-05-06T19:24:48.385Z,8.07
2019-05-06T19:29:54.721Z,7.03
2019-05-06T19:35:13.187Z,10.20
2019-05-06T19:40:18.737Z,10.13
2019-05-06T19:45:23.988Z,10.10
2019-05-06T19:50:29.294Z,10.00
2019-05-06T19:55:35.243Z,13.97
2019-05-06T20:00:42.024Z,10.27
2019-05-06T20:06:14.200Z,10.77
2019-05-06T20:11:29.433Z,10.80
2019-05-06T20:16:33.323Z,12.40
2019-05-06T20:21:37.693Z,12.57
2019-05-06T20:26:43.067Z,10.43
2019-05-06T20:31:47.753Z,10.67
2019-05-06T20:36:52.831Z,11.27
2019-05-06T20:41:58.568Z,10.93
2019-05-06T20:47:03.199Z,11.23
2019-05-06T20:52:07.592Z,10.43
2019-05-06T20:57:12.428Z,14.77
2019-05-06T21:02:18.381Z,12.20
2019-05-06T21:07:23.865Z,16.30
2019-05-06T21:12:28.898Z,11.60
2019-05-06T21:17:34.059Z,14.80
2019-05-06T21:22:39.131Z,15.40
2019-05-06T21:27:44.196Z,15.70
2019-05-06T21:32:51.920Z,12.47
2019-05-06T21:37:56.743Z,17.90
2019-05-06T21:43:02.218Z,16.03
2019-05-06T21:48:08.405Z,16.00
2019-05-06T21:53:14.914Z,17.00
2019-05-06T21:58:22.976Z,18.83
2019-05-06T22:03:27.895Z,17.27
2019-05-06T22:08:33.123Z,20.43
2019-05-06T22:13:38.809Z,12.97
2019-05-06T22:18:45.635Z,13.70
2019-05-06T22:23:52.513Z,16.20
2019-05-06T22:28:57.621Z,15.60
2019-05-06T22:34:02.645Z,13.40
2019-05-06T22:39:07.921Z,11.53
2019-05-06T22:44:17.023Z,13.43
2019-05-06T22:49:22.573Z,14.70
2019-05-06T22:54:27.934Z,14.30
2019-05-06T22:59:33.841Z,17.23
2019-05-06T23:04:39.552Z,14.00
2019-05-06T23:09:44.594Z,17.00
2019-05-06T23:14:49.594Z,12.47
2019-05-06T23:19:54.468Z,14.50
2019-05-06T23:24:59.369Z,14.20
2019-05-06T23:30:06.125Z,12.10
2019-05-06T23:35:12.849Z,13.03
2019-05-06T23:40:52.777Z,15.03
2019-05-06T23:46:34.834Z,16.83
2019-05-06T23:52:16.962Z,16.43
2019-05-06T23:57:22.585Z,16.43
